createdAt,value
2017-11-13T00:00:39.493Z,54.78
2017-11-13T00:03:07.021Z,57.75
2017-11-13T00:05:34.546Z,61.28
2017-11-13T00:08:02.082Z,59.00
2017-11-13T00:10:29.625Z,47.40
2017-11-13T00:12:57.181Z,56.13
2017-11-13T00:15:24.706Z,50.42
2017-11-13T00:17:52.652Z,50.38
2017-11-13T00:20:20.194Z,50.88
2017-11-13T00:22:47.765Z,45.28
2017-11-13T00:25:15.297Z,47.95
2017-11-13T00:27:42.819Z,44.85
2017-11-13T00:30:10.368Z,47.72
2017-11-13T00:32:37.894Z,48.30
2017-11-13T00:35:05.451Z,51.92
2017-11-13T00:37:32.985Z,52.58
2017-11-13T00:40:00.560Z,51.17
2017-11-13T00:42:28.139Z,59.67
2017-11-13T00:44:55.666Z,61.28
2017-11-13T00:47:23.602Z,63.85
2017-11-13T00:49:51.124Z,53.95
2017-11-13T00:52:18.675Z,57.92
2017-11-13T00:54:46.189Z,63.65
2017-11-13T00:57:13.760Z,58.10
2017-11-13T00:59:41.291Z,55.92
2017-11-13T01:02:08.821Z,52.65
2017-11-13T01:04:36.353Z,47.25
2017-11-13T01:07:04.265Z,49.92
2017-11-13T01:09:32.197Z,56.35
2017-11-13T01:11:59.712Z,51.05
2017-11-13T01:14:27.280Z,53.80
2017-11-13T01:16:55.228Z,50.55
2017-11-13T01:19:22.765Z,53.45
2017-11-13T01:21:50.327Z,48.20
2017-11-13T01:24:17.841Z,49.03
2017-11-13T01:26:45.392Z,48.40
2017-11-13T01:29:12.916Z,55.58
2017-11-13T01:31:40.486Z,48.08
2017-11-13T01:34:07.998Z,51.08
2017-11-13T01:36:35.511Z,49.45
2017-11-13T01:39:03.454Z,48.05
2017-11-13T01:41:30.979Z,47.40
2017-11-13T01:43:59.781Z,43.72
2017-11-13T01:46:27.721Z,45.80
2017-11-13T01:48:55.295Z,47.45
2017-11-13T01:51:22.813Z,49.63
2017-11-13T01:53:50.327Z,49.85
2017-11-13T01:56:17.884Z,44.45
2017-11-13T01:58:45.420Z,54.70
2017-11-13T02:01:12.979Z,50.35
2017-11-13T02:03:40.511Z,53.45
2017-11-13T02:06:08.079Z,46.60
2017-11-13T02:08:36.007Z,46.47
2017-11-13T02:11:03.625Z,41.40
2017-11-13T02:13:31.148Z,46.90
2017-11-13T02:15:59.079Z,48.63
2017-11-13T02:18:26.629Z,49.85
2017-11-13T02:20:54.162Z,48.15
2017-11-13T02:23:21.693Z,49.72
2017-11-13T02:25:49.209Z,50.97
2017-11-13T02:28:16.749Z,51.55
2017-11-13T02:30:44.264Z,54.58
2017-11-13T02:33:11.825Z,51.22
2017-11-13T02:35:39.355Z,45.75
2017-11-13T02:38:06.898Z,45.28
2017-11-13T02:40:34.826Z,51.15
2017-11-13T02:43:02.351Z,62.05
2017-11-13T02:45:29.904Z,54.13
2017-11-13T02:47:57.475Z,56.83
2017-11-13T02:50:25.035Z,55.35
2017-11-13T02:52:52.550Z,58.15
2017-11-13T02:55:20.514Z,52.40
2017-11-13T02:57:48.060Z,57.53
2017-11-13T03:00:15.592Z,52.67
2017-11-13T03:02:43.124Z,55.97
2017-11-13T03:05:10.641Z,48.15
2017-11-13T03:07:38.189Z,51.03
2017-11-13T03:10:05.711Z,48.30
2017-11-13T03:12:33.244Z,44.85
2017-11-13T03:15:00.759Z,54.08
2017-11-13T03:17:28.349Z,59.33
2017-11-13T03:19:55.864Z,54.80
2017-11-13T03:22:23.781Z,51.92
2017-11-13T03:24:51.330Z,52.25
2017-11-13T03:27:18.863Z,54.75
2017-11-13T03:29:46.403Z,56.90
2017-11-13T03:32:13.937Z,55.53
2017-11-13T03:34:41.890Z,55.08
2017-11-13T03:37:09.421Z,51.50
2017-11-13T03:39:37.352Z,55.75
2017-11-13T03:42:04.884Z,53.72
2017-11-13T03:44:32.417Z,50.45
2017-11-13T03:46:59.958Z,43.50
2017-11-13T03:49:27.747Z,44.97
2017-11-13T03:51:55.285Z,43.53
2017-11-13T03:54:22.820Z,52.75
2017-11-13T03:56:50.350Z,50.55
2017-11-13T03:59:17.869Z,43.97
2017-11-13T04:01:45.395Z,49.65
2017-11-13T04:04:12.941Z,47.45
2017-11-13T04:06:40.455Z,49.33
2017-11-13T04:09:07.982Z,44.95
2017-11-13T04:11:35.907Z,44.90
2017-11-13T04:14:03.417Z,50.08
2017-11-13T04:16:30.976Z,46.45
2017-11-13T04:18:58.855Z,48.40
2017-11-13T04:21:26.397Z,48.45
2017-11-13T04:23:53.934Z,46.92
2017-11-13T04:26:21.479Z,63.80
2017-11-13T04:28:49.428Z,56.60
2017-11-13T04:31:16.947Z,58.63
2017-11-13T04:33:44.495Z,59.15
2017-11-13T04:36:12.013Z,58.22
2017-11-13T04:38:39.540Z,59.72
2017-11-13T04:41:07.085Z,63.53
2017-11-13T04:43:34.606Z,57.08
2017-11-13T04:46:02.160Z,54.83
2017-11-13T04:48:29.692Z,59.53
2017-11-13T04:50:57.626Z,58.63
2017-11-13T04:53:25.158Z,47.35
2017-11-13T04:55:52.702Z,48.13
2017-11-13T04:58:20.255Z,56.13
2017-11-13T05:00:47.775Z,46.97
2017-11-13T05:03:15.288Z,43.50
2017-11-13T05:05:42.838Z,47.95
2017-11-13T05:08:10.361Z,47.83
2017-11-13T05:10:37.935Z,45.90
2017-11-13T05:13:05.460Z,44.40
2017-11-13T05:15:33.408Z,44.40
2017-11-13T05:18:00.955Z,45.33
2017-11-13T05:20:28.887Z,49.10
2017-11-13T05:22:56.422Z,43.50
2017-11-13T05:25:23.961Z,45.05
2017-11-13T05:27:51.559Z,48.33
2017-11-13T05:30:19.088Z,47.15
2017-11-13T05:32:46.611Z,43.58
2017-11-13T05:35:14.143Z,45.78
2017-11-13T05:37:41.671Z,47.85
2017-11-13T05:40:09.230Z,44.75
2017-11-13T05:42:37.161Z,50.00
2017-11-13T05:45:04.730Z,46.60
2017-11-13T05:47:32.271Z,42.30
2017-11-13T05:49:59.792Z,46.28
2017-11-13T05:52:27.751Z,43.10
2017-11-13T05:54:55.293Z,44.95
2017-11-13T05:57:22.837Z,44.53
2017-11-13T05:59:50.358Z,46.55
2017-11-13T06:02:17.876Z,42.03
2017-11-13T06:04:45.432Z,40.25
2017-11-13T06:07:12.963Z,44.30
2017-11-13T06:09:40.517Z,41.30
2017-11-13T06:12:08.065Z,40.17
2017-11-13T06:14:35.624Z,39.95
2017-11-13T06:17:03.163Z,42.17
2017-11-13T06:19:30.712Z,40.35
2017-11-13T06:21:58.229Z,39.75
2017-11-13T06:24:25.772Z,54.42
2017-11-13T06:26:53.288Z,36.85
2017-11-13T06:29:21.218Z,42.70
2017-11-13T06:31:48.743Z,35.03
2017-11-13T06:34:16.292Z,32.00
2017-11-13T06:36:43.816Z,39.67
2017-11-13T06:39:11.363Z,39.28
2017-11-13T06:41:38.893Z,38.15
2017-11-13T06:44:06.835Z,35.20
2017-11-13T06:46:34.372Z,34.45
2017-11-13T06:49:02.310Z,35.85
2017-11-13T06:51:29.821Z,34.38
2017-11-13T06:53:57.350Z,35.88
2017-11-13T06:56:25.279Z,34.83
2017-11-13T06:58:52.827Z,31.62
2017-11-13T07:01:20.752Z,30.55
2017-11-13T07:03:48.280Z,36.50
2017-11-13T07:06:15.804Z,30.35
2017-11-13T07:08:43.732Z,32.38
2017-11-13T07:11:11.267Z,30.23
2017-11-13T07:13:39.199Z,30.42
2017-11-13T07:16:06.729Z,33.40
2017-11-13T07:18:34.266Z,29.48
2017-11-13T07:21:01.824Z,31.98
2017-11-13T07:23:29.363Z,30.23
2017-11-13T07:25:56.931Z,36.45
2017-11-13T07:28:24.444Z,38.90
2017-11-13T07:30:52.850Z,34.13
2017-11-13T07:33:20.391Z,40.38
2017-11-13T07:35:47.949Z,38.70
2017-11-13T07:38:15.875Z,45.67
2017-11-13T07:40:43.406Z,45.90
2017-11-13T07:43:10.945Z,42.28
2017-11-13T07:45:38.478Z,46.67
2017-11-13T07:48:05.995Z,41.50
2017-11-13T07:50:33.946Z,38.45
2017-11-13T07:53:01.470Z,38.47
2017-11-13T07:55:29.828Z,44.03
2017-11-13T07:57:57.345Z,42.75
2017-11-13T08:00:24.888Z,52.33
2017-11-13T08:02:52.410Z,41.55
2017-11-13T08:05:19.964Z,48.70
2017-11-13T08:07:47.500Z,43.28
2017-11-13T08:10:15.033Z,40.67
2017-11-13T08:12:42.543Z,42.65
2017-11-13T08:15:10.078Z,46.37
2017-11-13T08:17:37.589Z,44.72
2017-11-13T08:20:05.128Z,37.45
2017-11-13T08:22:33.064Z,37.60
2017-11-13T08:25:00.626Z,39.10
2017-11-13T08:27:28.170Z,38.40
2017-11-13T08:29:55.709Z,41.75
2017-11-13T08:32:23.221Z,46.00
2017-11-13T08:34:50.772Z,41.78
2017-11-13T08:37:18.280Z,41.17
2017-11-13T08:39:45.793Z,40.05
2017-11-13T08:42:13.341Z,40.58
2017-11-13T08:44:40.886Z,44.75
2017-11-13T08:47:08.433Z,42.47
2017-11-13T08:49:35.949Z,41.92
2017-11-13T08:52:03.502Z,38.58
2017-11-13T08:54:31.431Z,42.67
2017-11-13T08:56:59.009Z,36.65
2017-11-13T08:59:26.529Z,31.42
2017-11-13T09:01:54.076Z,35.13
2017-11-13T09:04:21.587Z,36.20
2017-11-13T09:06:49.129Z,37.03
2017-11-13T09:09:16.650Z,33.75
2017-11-13T09:11:44.608Z,38.30
2017-11-13T09:14:12.130Z,35.67
2017-11-13T09:16:39.661Z,35.30
2017-11-13T09:19:07.584Z,38.97
2017-11-13T09:21:35.121Z,38.85
2017-11-13T09:24:02.637Z,34.67
2017-11-13T09:26:30.569Z,29.98
2017-11-13T09:28:58.204Z,33.55
2017-11-13T09:31:26.229Z,30.67
2017-11-13T09:33:53.764Z,33.95
2017-11-13T09:36:21.298Z,26.52
2017-11-13T09:38:48.843Z,25.73
2017-11-13T09:41:16.809Z,25.95
2017-11-13T09:43:44.351Z,31.85
2017-11-13T09:46:12.285Z,26.65
2017-11-13T09:48:39.810Z,32.47
2017-11-13T09:51:07.353Z,27.08
2017-11-13T09:53:34.889Z,28.83
2017-11-13T09:56:02.429Z,24.35
2017-11-13T09:58:29.941Z,23.98
2017-11-13T10:00:57.507Z,21.77
2017-11-13T10:03:25.046Z,20.77
2017-11-13T10:05:52.590Z,20.02
2017-11-13T10:08:20.121Z,27.52
2017-11-13T10:10:47.648Z,18.52
2017-11-13T10:13:15.204Z,20.92
2017-11-13T10:15:43.127Z,18.45
2017-11-13T10:18:10.672Z,24.65
2017-11-13T10:20:38.188Z,23.65
2017-11-13T10:23:05.735Z,18.58
2017-11-13T10:25:33.266Z,17.73
2017-11-13T10:28:00.818Z,17.65
2017-11-13T10:30:28.746Z,26.08
2017-11-13T10:32:56.293Z,16.90
2017-11-13T10:35:24.228Z,15.95
2017-11-13T10:37:51.780Z,20.37
2017-11-13T10:40:19.709Z,18.05
2017-11-13T10:42:47.250Z,20.42
2017-11-13T10:45:14.761Z,14.70
2017-11-13T10:47:42.310Z,17.40
2017-11-13T10:50:09.852Z,19.35
2017-11-13T10:52:37.386Z,20.75
2017-11-13T10:55:04.910Z,17.85
2017-11-13T10:57:32.455Z,18.75
2017-11-13T10:59:59.973Z,18.35
2017-11-13T11:02:27.519Z,18.75
2017-11-13T11:04:55.047Z,30.80
2017-11-13T11:07:22.597Z,13.27
2017-11-13T11:09:50.116Z,18.77
2017-11-13T11:12:21.210Z,18.67
2017-11-13T11:14:48.742Z,12.05
2017-11-13T11:17:27.523Z,12.75
2017-11-13T11:20:01.657Z,22.15
2017-11-13T11:22:29.669Z,21.52
2017-11-13T11:24:57.188Z,16.75
2017-11-13T11:27:29.333Z,12.50
2017-11-13T11:29:57.876Z,12.32
2017-11-13T11:32:26.015Z,13.45
2017-11-13T11:38:00.188Z,16.37
2017-11-13T11:40:31.152Z,16.08
2017-11-13T11:42:58.737Z,15.50
2017-11-13T11:48:43.201Z,16.92
2017-11-13T11:51:10.713Z,12.65
2017-11-13T11:53:42.085Z,16.10
2017-11-13T11:59:07.656Z,15.90
2017-11-13T12:01:35.577Z,12.37
2017-11-13T12:04:03.146Z,14.87
2017-11-13T12:06:30.685Z,16.20
2017-11-13T12:08:58.241Z,15.23
2017-11-13T12:11:25.764Z,15.93
2017-11-13T12:13:53.293Z,14.80
2017-11-13T12:16:20.829Z,9.98
2017-11-13T12:18:48.376Z,17.55
2017-11-13T12:21:15.899Z,16.33
2017-11-13T12:23:43.453Z,12.40
2017-11-13T12:26:10.961Z,17.33
2017-11-13T12:28:38.488Z,13.02
2017-11-13T12:31:06.397Z,15.75
2017-11-13T12:33:33.936Z,9.25
2017-11-13T12:36:01.465Z,8.73
2017-11-13T12:38:29.003Z,7.75
2017-11-13T12:40:56.526Z,10.45
2017-11-13T12:43:24.072Z,11.57
2017-11-13T12:45:51.593Z,9.80
2017-11-13T12:48:19.519Z,11.18
2017-11-13T12:50:47.071Z,12.63
2017-11-13T12:53:14.989Z,12.40
2017-11-13T12:55:42.524Z,6.03
2017-11-13T12:58:10.032Z,11.55
2017-11-13T13:00:37.953Z,17.55
2017-11-13T13:03:05.487Z,11.10
2017-11-13T13:05:33.057Z,10.80
2017-11-13T13:08:00.580Z,10.77
2017-11-13T13:10:28.104Z,15.55
2017-11-13T13:12:55.620Z,8.25
2017-11-13T13:15:23.187Z,10.75
2017-11-13T13:17:50.707Z,8.18
2017-11-13T13:20:18.230Z,13.93
2017-11-13T13:22:45.755Z,7.30
2017-11-13T13:25:13.830Z,14.87
2017-11-13T13:27:41.356Z,12.05
2017-11-13T13:30:09.294Z,14.77
2017-11-13T13:32:36.809Z,8.38
2017-11-13T13:35:04.349Z,14.40
2017-11-13T13:37:32.270Z,11.73
2017-11-13T13:39:59.798Z,9.73
2017-11-13T13:42:27.308Z,10.85
2017-11-13T13:44:54.835Z,12.65
2017-11-13T13:47:22.751Z,7.03
2017-11-13T13:49:50.299Z,11.20
2017-11-13T13:52:17.837Z,15.05
2017-11-13T13:54:45.758Z,11.45
2017-11-13T13:57:13.279Z,13.65
2017-11-13T13:59:40.809Z,11.12
2017-11-13T14:02:08.327Z,11.48
2017-11-13T14:04:35.875Z,15.60
2017-11-13T14:07:03.385Z,12.50
2017-11-13T14:09:31.042Z,6.40
2017-11-13T14:11:58.568Z,17.00
2017-11-13T14:14:26.107Z,18.50
2017-11-13T14:16:53.642Z,10.00
2017-11-13T14:19:21.567Z,10.13
2017-11-13T14:21:49.116Z,12.43
2017-11-13T14:24:16.626Z,9.38
2017-11-13T14:26:44.151Z,12.32
2017-11-13T14:29:11.666Z,17.83
2017-11-13T14:31:39.232Z,10.65
2017-11-13T14:34:06.745Z,8.98
2017-11-13T14:36:34.691Z,11.65
2017-11-13T14:39:02.221Z,7.72
2017-11-13T14:41:29.767Z,10.63
2017-11-13T14:43:57.290Z,13.18
2017-11-13T14:46:25.224Z,15.15
2017-11-13T14:48:52.755Z,7.35
2017-11-13T14:51:20.282Z,8.93
2017-11-13T14:53:47.856Z,12.07
2017-11-13T14:56:15.403Z,14.85
2017-11-13T14:58:43.744Z,11.90
2017-11-13T15:01:11.268Z,10.90
2017-11-13T15:03:38.802Z,11.02
2017-11-13T15:06:06.347Z,17.52
2017-11-13T15:08:33.869Z,8.95
2017-11-13T15:11:01.388Z,13.40
2017-11-13T15:13:28.898Z,9.00
2017-11-13T15:15:56.422Z,10.70
2017-11-13T15:18:23.951Z,11.35
2017-11-13T15:20:52.307Z,13.00
2017-11-13T15:23:19.851Z,16.75
2017-11-13T15:25:47.381Z,13.35
2017-11-13T15:28:14.903Z,10.07
2017-11-13T15:30:42.437Z,12.20
2017-11-13T15:33:09.941Z,7.90
2017-11-13T15:35:37.454Z,9.15
2017-11-13T15:38:04.991Z,9.02
2017-11-13T15:40:32.496Z,7.25
2017-11-13T15:43:00.020Z,8.18
2017-11-13T15:45:27.930Z,11.90
2017-11-13T15:47:55.467Z,9.57
2017-11-13T15:50:22.995Z,11.63
2017-11-13T15:52:50.542Z,9.70
2017-11-13T15:55:18.067Z,15.13
2017-11-13T15:57:45.609Z,12.80
2017-11-13T16:00:13.973Z,14.45
2017-11-13T16:02:41.635Z,16.17
2017-11-13T16:05:09.163Z,11.43
2017-11-13T16:07:36.696Z,10.90
2017-11-13T16:10:04.615Z,12.70
2017-11-13T16:12:32.163Z,16.33
2017-11-13T16:15:00.094Z,16.00
2017-11-13T16:17:27.646Z,16.33
2017-11-13T16:19:55.550Z,15.70
2017-11-13T16:22:23.491Z,13.10
2017-11-13T16:24:51.018Z,14.20
2017-11-13T16:27:18.949Z,17.92
2017-11-13T16:29:46.460Z,10.35
2017-11-13T16:32:13.998Z,12.98
2017-11-13T16:34:41.517Z,11.73
2017-11-13T16:37:09.071Z,9.13
2017-11-13T16:39:36.592Z,10.65
2017-11-13T16:42:04.144Z,8.35
2017-11-13T16:44:31.662Z,12.30
2017-11-13T16:46:59.176Z,15.25
2017-11-13T16:49:27.076Z,12.18
2017-11-13T16:51:54.608Z,9.70
2017-11-13T16:54:22.120Z,14.43
2017-11-13T16:56:49.646Z,9.70
2017-11-13T16:59:17.172Z,12.45
2017-11-13T17:01:44.686Z,21.52
2017-11-13T17:04:12.213Z,15.20
2017-11-13T17:06:39.731Z,15.95
2017-11-13T17:09:07.274Z,14.35
2017-11-13T17:11:34.807Z,15.75
2017-11-13T17:14:02.343Z,12.93
2017-11-13T17:16:29.878Z,11.65
2017-11-13T17:18:57.403Z,12.70
2017-11-13T17:21:24.920Z,15.98
2017-11-13T17:23:52.441Z,14.63
2017-11-13T17:26:19.965Z,13.38
2017-11-13T17:28:47.518Z,17.25
2017-11-13T17:31:15.432Z,26.98
2017-11-13T17:33:42.979Z,18.02
2017-11-13T17:36:10.520Z,18.15
2017-11-13T17:38:38.072Z,14.80
2017-11-13T17:41:06.005Z,15.35
2017-11-13T17:43:33.552Z,16.65
2017-11-13T17:46:01.089Z,10.13
2017-11-13T17:48:28.710Z,9.40
2017-11-13T17:50:56.215Z,14.38
2017-11-13T17:53:23.740Z,11.02
2017-11-13T17:55:51.254Z,9.50
2017-11-13T17:58:18.800Z,12.10
2017-11-13T18:00:46.307Z,9.85
2017-11-13T18:03:13.847Z,9.43
2017-11-13T18:05:41.405Z,8.55
2017-11-13T18:08:09.324Z,11.48
2017-11-13T18:10:36.853Z,9.30
2017-11-13T18:13:04.400Z,15.20
2017-11-13T18:15:31.920Z,9.05
2017-11-13T18:17:59.472Z,7.53
2017-11-13T18:20:26.989Z,12.55
2017-11-13T18:22:54.493Z,8.05
2017-11-13T18:25:22.038Z,11.43
2017-11-13T18:27:49.564Z,20.33
2017-11-13T18:30:17.106Z,12.57
2017-11-13T18:32:44.625Z,8.63
2017-11-13T18:35:12.175Z,17.05
2017-11-13T18:37:39.684Z,12.57
2017-11-13T18:40:07.231Z,10.80
2017-11-13T18:42:34.745Z,11.40
2017-11-13T18:45:02.273Z,14.23
2017-11-13T18:47:29.774Z,15.70
2017-11-13T18:49:57.292Z,12.07
2017-11-13T18:52:24.813Z,12.02
2017-11-13T18:54:52.359Z,12.65
2017-11-13T18:57:19.865Z,12.48
2017-11-13T18:59:47.395Z,15.50
2017-11-13T19:02:15.328Z,15.05
2017-11-13T19:04:42.855Z,9.93
2017-11-13T19:07:10.369Z,12.27
2017-11-13T19:09:37.889Z,13.68
2017-11-13T19:12:05.404Z,11.43
2017-11-13T19:14:32.957Z,14.95
2017-11-13T19:17:00.472Z,9.88
2017-11-13T19:19:28.018Z,12.37
2017-11-13T19:21:55.526Z,14.00
2017-11-13T19:24:23.072Z,12.15
2017-11-13T19:26:50.590Z,13.68
2017-11-13T19:29:18.525Z,11.55
2017-11-13T19:31:46.051Z,15.82
2017-11-13T19:34:13.591Z,18.48
2017-11-13T19:36:41.149Z,13.57
2017-11-13T19:39:08.706Z,15.93
2017-11-13T19:41:36.627Z,19.62
2017-11-13T19:44:04.201Z,19.02
2017-11-13T19:46:31.702Z,15.02
2017-11-13T19:48:59.248Z,17.10
2017-11-13T19:51:26.794Z,14.07
2017-11-13T19:53:54.306Z,14.23
2017-11-13T19:56:21.857Z,17.05
2017-11-13T19:58:49.383Z,24.02
2017-11-13T20:01:17.662Z,21.60
2017-11-13T20:03:45.177Z,24.95
2017-11-13T20:06:12.737Z,18.25
2017-11-13T20:08:40.261Z,14.57
2017-11-13T20:11:07.784Z,16.02
2017-11-13T20:13:35.285Z,14.32
2017-11-13T20:16:02.817Z,15.27
2017-11-13T20:18:30.323Z,15.07
2017-11-13T20:20:57.844Z,13.13
2017-11-13T20:23:25.378Z,16.48
2017-11-13T20:25:52.917Z,11.68
2017-11-13T20:28:20.821Z,12.98
2017-11-13T20:30:48.341Z,9.80
2017-11-13T20:33:15.849Z,9.60
2017-11-13T20:35:43.616Z,10.63
2017-11-13T20:38:11.198Z,13.23
2017-11-13T20:40:38.733Z,17.25
2017-11-13T20:43:06.253Z,11.35
2017-11-13T20:45:33.827Z,15.57
2017-11-13T20:48:01.424Z,11.75
2017-11-13T20:50:28.965Z,12.93
2017-11-13T20:52:56.488Z,14.00
2017-11-13T20:55:24.016Z,11.63
2017-11-13T20:57:51.938Z,12.23
2017-11-13T21:00:19.501Z,17.83
2017-11-13T21:02:47.007Z,18.20
2017-11-13T21:05:14.934Z,15.48
2017-11-13T21:07:42.490Z,15.43
2017-11-13T21:10:10.005Z,14.52
2017-11-13T21:12:37.940Z,17.27
2017-11-13T21:15:05.467Z,18.92
2017-11-13T21:17:33.000Z,17.45
2017-11-13T21:20:00.516Z,23.48
2017-11-13T21:22:28.060Z,17.10
2017-11-13T21:24:55.582Z,18.35
2017-11-13T21:27:23.138Z,12.23
2017-11-13T21:29:50.670Z,19.35
2017-11-13T21:32:18.176Z,17.23
2017-11-13T21:34:45.722Z,15.40
2017-11-13T21:37:13.640Z,14.38
2017-11-13T21:39:41.188Z,15.65
2017-11-13T21:42:08.693Z,15.27
2017-11-13T21:44:36.216Z,17.30
2017-11-13T21:47:03.746Z,15.07
2017-11-13T21:49:31.372Z,13.20
2017-11-13T21:51:59.276Z,16.73
2017-11-13T21:54:26.931Z,14.55
2017-11-13T21:56:54.459Z,16.17
2017-11-13T21:59:21.983Z,14.90
2017-11-13T22:01:49.525Z,12.60
2017-11-13T22:04:17.052Z,14.98
2017-11-13T22:06:44.581Z,12.35
2017-11-13T22:09:12.132Z,17.02
2017-11-13T22:11:39.662Z,14.65
2017-11-13T22:14:07.173Z,16.15
2017-11-13T22:16:34.704Z,22.50
2017-11-13T22:19:02.229Z,16.98
2017-11-13T22:21:29.738Z,16.83
2017-11-13T22:23:57.657Z,20.08
2017-11-13T22:26:25.184Z,19.45
2017-11-13T22:28:52.753Z,14.60
2017-11-13T22:31:20.324Z,15.55
2017-11-13T22:33:47.838Z,15.75
2017-11-13T22:36:15.387Z,15.52
2017-11-13T22:38:43.724Z,14.45
2017-11-13T22:41:11.272Z,19.98
2017-11-13T22:43:38.797Z,18.37
2017-11-13T22:46:06.343Z,17.50
2017-11-13T22:48:34.268Z,18.00
2017-11-13T22:51:01.795Z,15.32
2017-11-13T22:53:29.322Z,16.85
2017-11-13T22:55:56.854Z,18.00
2017-11-13T22:58:24.382Z,16.65
2017-11-13T23:00:52.472Z,15.80
2017-11-13T23:03:20.028Z,17.00
2017-11-13T23:05:47.574Z,13.90
2017-11-13T23:08:15.125Z,17.80
2017-11-13T23:10:42.670Z,14.75
2017-11-13T23:13:10.225Z,18.52
2017-11-13T23:15:38.130Z,14.48
2017-11-13T23:18:05.644Z,17.30
2017-11-13T23:20:33.186Z,14.68
2017-11-13T23:23:00.693Z,11.40
2017-11-13T23:25:28.241Z,19.62
2017-11-13T23:27:55.759Z,15.02
2017-11-13T23:30:23.297Z,14.90
2017-11-13T23:32:50.816Z,13.07
2017-11-13T23:35:18.359Z,21.90
2017-11-13T23:37:45.889Z,11.30
2017-11-13T23:40:13.411Z,11.63
2017-11-13T23:42:40.952Z,13.43
2017-11-13T23:45:08.469Z,11.27
2017-11-13T23:47:35.991Z,11.12
2017-11-13T23:50:03.496Z,14.27
2017-11-13T23:52:31.440Z,10.57
2017-11-13T23:54:58.971Z,11.98
2017-11-13T23:57:26.497Z,15.77
2017-11-13T23:59:54.012Z,12.77
